createdAt,value
2024-03-02T00:00:33.372Z,5.20
2024-03-02T00:03:00.515Z,5.00
2024-03-02T00:05:28.222Z,5.43
2024-03-02T00:07:59.554Z,5.10
2024-03-02T00:10:31.005Z,4.68
2024-03-02T00:12:58.794Z,5.03
2024-03-02T00:15:31.965Z,5.32
2024-03-02T00:18:00.233Z,4.70
2024-03-02T00:20:30.749Z,5.15
2024-03-02T00:23:06.624Z,4.88
2024-03-02T00:25:48.009Z,5.07
2024-03-02T00:28:21.232Z,5.30
2024-03-02T00:30:59.164Z,4.93
2024-03-02T00:33:37.233Z,4.65
2024-03-02T00:36:06.335Z,5.10
2024-03-02T00:38:35.280Z,5.00
2024-03-02T00:41:10.126Z,5.07
2024-03-02T00:43:59.249Z,5.43
2024-03-02T00:46:26.690Z,4.97
2024-03-02T00:48:59.058Z,5.75
2024-03-02T00:51:28.811Z,5.05
2024-03-02T00:53:59.024Z,5.38
2024-03-02T00:56:27.541Z,5.78
2024-03-02T00:58:55.096Z,5.65
2024-03-02T01:01:22.639Z,5.53
2024-03-02T01:03:50.718Z,5.45
2024-03-02T01:06:18.612Z,5.35
2024-03-02T01:08:46.003Z,5.70
2024-03-02T01:11:13.493Z,5.22
2024-03-02T01:13:40.689Z,5.57
2024-03-02T01:16:08.367Z,5.82
2024-03-02T01:18:35.604Z,5.22
2024-03-02T01:21:03.125Z,5.22
2024-03-02T01:23:30.548Z,4.38
2024-03-02T01:25:57.779Z,4.72
2024-03-02T01:28:25.230Z,5.30
2024-03-02T01:30:52.566Z,5.13
2024-03-02T01:33:21.314Z,3.85
2024-03-02T01:35:48.779Z,4.22
2024-03-02T01:38:15.844Z,4.57
2024-03-02T01:40:43.541Z,4.50
2024-03-02T01:43:10.646Z,4.38
2024-03-02T01:45:38.800Z,4.10
2024-03-02T01:48:08.580Z,4.53
2024-03-02T01:50:36.636Z,4.38
2024-03-02T01:53:06.493Z,4.05
2024-03-02T01:55:35.567Z,3.88
2024-03-02T01:58:03.104Z,3.72
2024-03-02T02:00:31.514Z,3.72
2024-03-02T02:02:59.197Z,3.58
2024-03-02T02:05:26.837Z,3.92
2024-03-02T02:07:54.097Z,3.80
2024-03-02T02:10:21.283Z,3.60
2024-03-02T02:12:48.732Z,3.50
2024-03-02T02:15:31.141Z,3.60
2024-03-02T02:17:59.495Z,3.50
2024-03-02T02:20:27.216Z,3.42
2024-03-02T02:23:04.621Z,3.70
2024-03-02T02:25:31.862Z,3.70
2024-03-02T02:27:59.791Z,3.28
2024-03-02T02:30:29.582Z,3.45
2024-03-02T02:32:57.470Z,3.53
2024-03-02T02:35:27.916Z,3.33
2024-03-02T02:37:56.687Z,4.13
2024-03-02T02:40:24.355Z,3.55
2024-03-02T02:42:53.961Z,3.58
2024-03-02T02:45:21.709Z,3.53
2024-03-02T02:47:48.961Z,3.65
2024-03-02T02:50:16.151Z,3.85
2024-03-02T02:52:43.962Z,3.88
2024-03-02T02:55:12.980Z,3.90
2024-03-02T02:57:44.699Z,3.80
2024-03-02T03:00:18.287Z,3.28
2024-03-02T03:02:49.313Z,3.30
2024-03-02T03:05:17.697Z,3.10
2024-03-02T03:07:46.256Z,3.38
2024-03-02T03:10:15.382Z,3.13
2024-03-02T03:12:45.161Z,3.10
2024-03-02T03:15:14.027Z,3.10
2024-03-02T03:17:41.864Z,3.75
2024-03-02T03:20:12.764Z,3.13
2024-03-02T03:22:40.516Z,3.53
2024-03-02T03:25:11.332Z,3.53
2024-03-02T03:27:38.592Z,3.13
2024-03-02T03:30:07.906Z,3.00
2024-03-02T03:32:35.821Z,3.45
2024-03-02T03:35:03.062Z,2.95
2024-03-02T03:37:34.577Z,3.17
2024-03-02T03:40:04.303Z,3.28
2024-03-02T03:42:31.463Z,3.50
2024-03-02T03:44:58.573Z,2.80
2024-03-02T03:47:25.774Z,3.30
2024-03-02T03:49:52.935Z,2.92
2024-03-02T03:52:20.040Z,3.20
2024-03-02T03:54:47.165Z,2.85
2024-03-02T03:57:14.251Z,3.00
2024-03-02T03:59:41.370Z,3.28
2024-03-02T04:02:09.749Z,2.95
2024-03-02T04:04:36.975Z,3.38
2024-03-02T04:07:04.324Z,3.17
2024-03-02T04:09:31.462Z,3.60
2024-03-02T04:11:58.569Z,2.95
2024-03-02T04:14:25.791Z,3.30
2024-03-02T04:16:53.273Z,3.15
2024-03-02T04:19:20.326Z,3.50
2024-03-02T04:21:47.545Z,3.28
2024-03-02T04:24:14.821Z,2.72
2024-03-02T04:26:41.975Z,3.08
2024-03-02T04:29:09.159Z,3.65
2024-03-02T04:31:36.317Z,3.35
2024-03-02T04:34:03.481Z,3.17
2024-03-02T04:36:31.058Z,2.95
2024-03-02T04:38:58.266Z,3.25
2024-03-02T04:41:25.362Z,3.30
2024-03-02T04:43:52.402Z,3.30
2024-03-02T04:46:19.646Z,3.05
2024-03-02T04:48:46.832Z,3.63
2024-03-02T04:51:14.827Z,2.95
2024-03-02T04:53:42.046Z,3.20
2024-03-02T04:56:24.463Z,2.97
2024-03-02T04:58:51.536Z,3.28
2024-03-02T05:01:19.013Z,2.78
2024-03-02T05:03:46.671Z,2.55
2024-03-02T05:06:13.795Z,3.00
2024-03-02T05:08:41.085Z,2.97
2024-03-02T05:11:26.592Z,3.08
2024-03-02T05:13:53.679Z,3.22
2024-03-02T05:16:20.874Z,3.00
2024-03-02T05:18:48.178Z,3.00
2024-03-02T05:21:15.512Z,2.33
2024-03-02T05:23:42.872Z,2.75
2024-03-02T05:26:10.856Z,2.97
2024-03-02T05:28:38.676Z,2.70
2024-03-02T05:31:06.738Z,2.75
2024-03-02T05:33:34.768Z,2.60
2024-03-02T05:36:03.348Z,2.30
2024-03-02T05:38:30.687Z,2.45
2024-03-02T05:40:57.834Z,2.40
2024-03-02T05:43:25.218Z,2.25
2024-03-02T05:45:52.573Z,2.50
2024-03-02T05:48:19.889Z,2.65
2024-03-02T05:50:47.303Z,2.50
2024-03-02T05:53:14.504Z,2.50
2024-03-02T05:55:41.610Z,2.67
2024-03-02T05:58:24.132Z,2.72
2024-03-02T06:00:51.581Z,2.22
2024-03-02T06:03:18.697Z,2.80
2024-03-02T06:05:45.830Z,2.28
2024-03-02T06:08:13.038Z,2.50
2024-03-02T06:10:40.058Z,2.15
2024-03-02T06:13:07.126Z,2.22
2024-03-02T06:15:37.434Z,2.05
2024-03-02T06:18:04.851Z,2.10
2024-03-02T06:20:36.330Z,1.80
2024-03-02T06:23:04.387Z,2.10
2024-03-02T06:25:31.552Z,1.92
2024-03-02T06:27:58.717Z,2.20
2024-03-02T06:30:26.301Z,2.15
2024-03-02T06:32:53.554Z,2.10
2024-03-02T06:35:20.875Z,1.98
2024-03-02T06:37:47.963Z,2.20
2024-03-02T06:40:15.140Z,1.80
2024-03-02T06:42:42.397Z,1.90
2024-03-02T06:45:09.690Z,1.85
2024-03-02T06:47:37.028Z,1.80
2024-03-02T06:50:04.427Z,2.28
2024-03-02T06:52:31.596Z,1.90
2024-03-02T06:54:58.836Z,1.98
2024-03-02T06:57:25.976Z,2.08
2024-03-02T06:59:56.248Z,2.00
2024-03-02T07:02:24.337Z,1.80
2024-03-02T07:04:52.663Z,1.90
2024-03-02T07:07:19.819Z,1.80
2024-03-02T07:09:47.260Z,2.28
2024-03-02T07:12:14.485Z,2.40
2024-03-02T07:15:12.714Z,2.40
2024-03-02T07:17:39.930Z,2.10
2024-03-02T07:20:08.157Z,2.03
2024-03-02T07:22:36.069Z,1.90
2024-03-02T07:25:04.408Z,2.00
2024-03-02T07:27:33.220Z,2.08
2024-03-02T07:30:00.469Z,1.90
2024-03-02T07:32:27.683Z,1.70
2024-03-02T07:34:54.745Z,2.05
2024-03-02T07:37:22.107Z,1.80
2024-03-02T07:39:49.406Z,4.03
2024-03-02T07:42:16.979Z,2.63
2024-03-02T07:44:46.636Z,2.05
2024-03-02T07:47:14.287Z,2.10
2024-03-02T07:49:41.628Z,2.00
2024-03-02T07:52:09.021Z,2.30
2024-03-02T07:54:36.259Z,2.10
2024-03-02T07:57:03.556Z,2.10
2024-03-02T07:59:30.820Z,1.92
2024-03-02T08:01:58.193Z,2.20
2024-03-02T08:04:25.955Z,2.50
2024-03-02T08:06:53.198Z,2.42
2024-03-02T08:09:20.521Z,3.55
2024-03-02T08:11:47.665Z,2.05
2024-03-02T08:14:14.778Z,2.13
2024-03-02T08:16:42.628Z,1.98
2024-03-02T08:19:10.471Z,2.05
2024-03-02T08:21:37.717Z,2.40
2024-03-02T08:24:05.442Z,1.98
2024-03-02T08:26:33.114Z,1.70
2024-03-02T08:29:02.971Z,2.03
2024-03-02T08:31:30.555Z,1.90
2024-03-02T08:33:58.737Z,2.03
2024-03-02T08:36:26.075Z,3.10
2024-03-02T08:38:53.449Z,2.70
2024-03-02T08:41:20.490Z,3.10
2024-03-02T08:43:47.785Z,1.60
2024-03-02T08:46:15.319Z,1.55
2024-03-02T08:48:42.481Z,1.70
2024-03-02T08:51:11.638Z,3.10
2024-03-02T08:53:39.816Z,3.85
2024-03-02T08:56:07.552Z,2.83
2024-03-02T08:58:34.681Z,3.25
2024-03-02T09:01:02.207Z,3.10
2024-03-02T09:03:29.463Z,2.97
2024-03-02T09:05:57.351Z,2.92
2024-03-02T09:08:24.660Z,3.00
2024-03-02T09:10:51.733Z,2.80
2024-03-02T09:13:19.254Z,2.33
2024-03-02T09:15:46.612Z,2.00
2024-03-02T09:18:14.862Z,1.90
2024-03-02T09:20:42.189Z,1.75
2024-03-02T09:23:09.384Z,2.03
2024-03-02T09:25:37.606Z,2.05
2024-03-02T09:28:05.077Z,2.25
2024-03-02T09:30:32.516Z,2.20
2024-03-02T09:35:29.685Z,1.80
2024-03-02T09:37:57.360Z,1.90
2024-03-02T09:40:24.432Z,1.70
2024-03-02T09:42:54.521Z,1.80
2024-03-02T09:45:25.219Z,1.60
2024-03-02T09:47:52.827Z,1.48
2024-03-02T09:50:20.151Z,1.70
2024-03-02T09:52:53.234Z,1.80
2024-03-02T09:55:20.717Z,2.60
2024-03-02T09:57:50.068Z,2.00
2024-03-02T10:00:17.610Z,1.60
2024-03-02T10:02:45.005Z,1.67
2024-03-02T10:05:13.794Z,1.67
2024-03-02T10:07:40.840Z,1.90
2024-03-02T10:10:15.458Z,1.92
2024-03-02T10:12:42.781Z,1.70
2024-03-02T10:15:11.258Z,2.00
2024-03-02T10:17:38.512Z,1.63
2024-03-02T10:20:30.074Z,1.45
2024-03-02T10:23:10.676Z,1.60
2024-03-02T10:25:43.865Z,1.60
2024-03-02T10:28:19.507Z,1.90
2024-03-02T10:30:51.298Z,2.33
2024-03-02T10:33:19.050Z,2.10
2024-03-02T10:35:46.450Z,2.05
2024-03-02T10:38:13.640Z,1.90
2024-03-02T10:40:40.739Z,1.73
2024-03-02T10:43:09.358Z,2.10
2024-03-02T10:45:36.619Z,1.90
2024-03-02T10:48:04.317Z,1.80
2024-03-02T10:50:32.220Z,6.72
2024-03-02T10:52:59.413Z,6.65
2024-03-02T10:55:26.728Z,8.18
2024-03-02T10:57:55.688Z,4.85
2024-03-02T11:00:31.592Z,3.67
2024-03-02T11:03:07.756Z,3.70
2024-03-02T11:05:38.316Z,2.75
2024-03-02T11:08:13.847Z,3.58
2024-03-02T11:10:52.893Z,2.78
2024-03-02T11:13:33.085Z,2.72
2024-03-02T11:16:36.639Z,3.22
2024-03-02T11:19:17.703Z,2.95
2024-03-02T11:21:46.459Z,3.33
2024-03-02T11:24:22.708Z,2.78
2024-03-02T11:26:52.534Z,3.42
2024-03-02T11:29:39.906Z,3.03
2024-03-02T11:32:15.265Z,2.58
2024-03-02T11:34:48.021Z,2.80
2024-03-02T11:39:44.740Z,2.88
2024-03-02T11:42:13.260Z,2.80
2024-03-02T11:44:40.795Z,3.20
2024-03-02T11:47:12.058Z,2.90
2024-03-02T11:50:00.641Z,3.00
2024-03-02T11:52:29.659Z,3.05
2024-03-02T11:54:57.241Z,3.08
2024-03-02T11:57:24.826Z,3.25
2024-03-02T11:59:52.269Z,2.70
2024-03-02T12:02:23.302Z,2.85
2024-03-02T12:04:51.202Z,2.70
2024-03-02T12:07:23.826Z,2.63
2024-03-02T12:10:01.946Z,3.30
2024-03-02T12:12:29.261Z,3.13
2024-03-02T12:14:57.158Z,2.80
2024-03-02T12:17:24.575Z,2.88
2024-03-02T12:19:51.980Z,2.72
2024-03-02T12:22:19.191Z,3.00
2024-03-02T12:24:47.728Z,3.13
2024-03-02T12:27:16.937Z,3.80
2024-03-02T12:29:44.576Z,2.70
2024-03-02T12:32:11.747Z,3.63
2024-03-02T12:34:39.966Z,3.03
2024-03-02T12:37:07.147Z,3.22
2024-03-02T12:39:34.564Z,2.83
2024-03-02T12:42:04.216Z,2.97
2024-03-02T12:44:31.677Z,3.03
2024-03-02T12:47:00.320Z,2.90
2024-03-02T12:49:30.045Z,3.17
2024-03-02T12:51:59.412Z,3.40
2024-03-02T12:54:28.424Z,3.35
2024-03-02T12:56:57.929Z,3.05
2024-03-02T12:59:28.186Z,3.00
2024-03-02T13:01:58.636Z,3.30
2024-03-02T13:04:31.089Z,2.92
2024-03-02T13:07:01.460Z,2.65
2024-03-02T13:09:28.881Z,4.65
2024-03-02T13:11:56.427Z,4.20
2024-03-02T13:14:26.266Z,3.95
2024-03-02T13:16:54.149Z,5.97
2024-03-02T13:19:21.367Z,6.18
2024-03-02T13:21:48.489Z,5.75
2024-03-02T13:24:15.814Z,5.07
2024-03-02T13:26:42.974Z,4.70
2024-03-02T13:29:10.403Z,4.47
2024-03-02T13:31:37.676Z,5.60
2024-03-02T13:34:04.982Z,4.80
2024-03-02T13:36:32.160Z,6.13
2024-03-02T13:38:59.607Z,5.88
2024-03-02T13:41:26.889Z,5.25
2024-03-02T13:43:54.815Z,5.38
2024-03-02T13:46:22.638Z,4.80
2024-03-02T13:48:49.856Z,5.90
2024-03-02T13:51:16.956Z,5.20
2024-03-02T13:53:44.021Z,5.78
2024-03-02T13:56:11.426Z,6.05
2024-03-02T13:58:38.823Z,5.60
2024-03-02T14:01:07.070Z,4.90
2024-03-02T14:03:34.538Z,4.85
2024-03-02T14:06:01.852Z,5.13
2024-03-02T14:08:29.022Z,4.75
2024-03-02T14:10:58.981Z,4.38
2024-03-02T14:13:27.565Z,3.80
2024-03-02T14:15:55.429Z,3.83
2024-03-02T14:18:23.195Z,4.35
2024-03-02T14:20:53.938Z,4.53
2024-03-02T14:23:21.897Z,4.10
2024-03-02T14:25:49.456Z,4.20
2024-03-02T14:28:36.907Z,3.72
2024-03-02T14:31:05.258Z,4.20
2024-03-02T14:33:33.120Z,4.95
2024-03-02T14:36:00.391Z,4.50
2024-03-02T14:38:28.168Z,3.90
2024-03-02T14:40:55.456Z,4.55
2024-03-02T14:43:22.807Z,2.75
2024-03-02T14:45:50.834Z,3.13
2024-03-02T14:48:18.240Z,3.88
2024-03-02T14:50:45.760Z,3.55
2024-03-02T14:53:13.576Z,3.47
2024-03-02T14:55:40.666Z,3.58
2024-03-02T14:58:09.648Z,3.78
2024-03-02T15:00:37.342Z,4.20
2024-03-02T15:03:07.734Z,3.63
2024-03-02T15:05:34.864Z,14.77
2024-03-02T15:08:05.584Z,15.02
2024-03-02T15:10:33.124Z,8.82
2024-03-02T15:13:00.408Z,11.60
2024-03-02T15:15:28.028Z,8.30
2024-03-02T15:17:55.281Z,6.90
2024-03-02T15:20:23.072Z,7.13
2024-03-02T15:22:50.243Z,6.38
2024-03-02T15:25:17.706Z,5.47
2024-03-02T15:27:44.941Z,4.65
2024-03-02T15:30:12.377Z,5.03
2024-03-02T15:32:40.105Z,4.63
2024-03-02T15:35:07.867Z,5.10
2024-03-02T15:37:35.118Z,5.18
2024-03-02T15:40:09.863Z,4.70
2024-03-02T15:42:37.534Z,4.90
2024-03-02T15:45:06.066Z,4.35
2024-03-02T15:47:34.963Z,4.55
2024-03-02T15:50:02.325Z,4.00
2024-03-02T15:52:29.702Z,3.95
2024-03-02T15:54:56.887Z,4.13
2024-03-02T15:57:24.442Z,4.38
2024-03-02T15:59:51.715Z,4.22
2024-03-02T16:02:18.814Z,3.38
2024-03-02T16:04:45.949Z,3.92
2024-03-02T16:07:13.502Z,3.45
2024-03-02T16:09:40.722Z,3.15
2024-03-02T16:12:08.090Z,3.72
2024-03-02T16:14:36.755Z,3.53
2024-03-02T16:17:05.820Z,3.88
2024-03-02T16:19:34.388Z,3.30
2024-03-02T16:22:01.720Z,7.28
2024-03-02T16:24:28.937Z,4.20
2024-03-02T16:26:56.049Z,3.10
2024-03-02T16:29:23.275Z,3.22
2024-03-02T16:31:50.306Z,4.20
2024-03-02T16:34:17.461Z,3.67
2024-03-02T16:36:44.863Z,3.47
2024-03-02T16:39:13.095Z,4.35
2024-03-02T16:41:44.315Z,4.55
2024-03-02T16:44:11.432Z,3.40
2024-03-02T16:46:41.729Z,3.70
2024-03-02T16:49:09.137Z,3.33
2024-03-02T16:51:48.013Z,3.25
2024-03-02T16:54:15.209Z,3.30
2024-03-02T16:56:45.907Z,3.13
2024-03-02T16:59:13.078Z,2.88
2024-03-02T17:01:40.251Z,3.30
2024-03-02T17:04:08.484Z,4.25
2024-03-02T17:06:35.993Z,4.13
2024-03-02T17:09:03.828Z,3.85
2024-03-02T17:11:32.308Z,4.00
2024-03-02T17:14:00.349Z,5.55
2024-03-02T17:16:27.666Z,3.17
2024-03-02T17:18:54.830Z,3.60
2024-03-02T17:21:21.933Z,2.90
2024-03-02T17:23:49.154Z,2.83
2024-03-02T17:26:16.274Z,3.00
2024-03-02T17:28:43.403Z,3.35
2024-03-02T17:31:10.748Z,2.88
2024-03-02T17:33:38.211Z,3.33
2024-03-02T17:36:05.633Z,3.42
2024-03-02T17:38:32.932Z,3.70
2024-03-02T17:41:00.332Z,3.80
2024-03-02T17:43:27.462Z,3.70
2024-03-02T17:45:55.037Z,4.43
2024-03-02T17:48:23.345Z,4.30
2024-03-02T17:50:50.935Z,4.32
2024-03-02T17:53:18.444Z,4.50
2024-03-02T17:55:45.970Z,3.90
2024-03-02T17:58:13.286Z,3.63
2024-03-02T18:00:42.333Z,3.70
2024-03-02T18:03:09.517Z,4.28
2024-03-02T18:05:39.445Z,3.80
2024-03-02T18:08:07.449Z,4.30
2024-03-02T18:10:35.120Z,4.65
2024-03-02T18:13:02.321Z,4.20
2024-03-02T18:15:29.652Z,4.40
2024-03-02T18:17:57.180Z,4.90
2024-03-02T18:20:24.281Z,4.97
2024-03-02T18:22:51.472Z,5.65
2024-03-02T18:25:18.732Z,4.93
2024-03-02T18:27:46.439Z,4.70
2024-03-02T18:30:13.930Z,4.80
2024-03-02T18:32:40.988Z,5.30
2024-03-02T18:35:09.856Z,4.93
2024-03-02T18:37:37.908Z,5.63
2024-03-02T18:40:06.763Z,5.28
2024-03-02T18:42:34.208Z,5.88
2024-03-02T18:45:04.846Z,5.43
2024-03-02T18:47:36.433Z,6.80
2024-03-02T18:50:06.802Z,7.70
2024-03-02T18:52:36.321Z,7.38
2024-03-02T18:55:08.544Z,7.57
2024-03-02T18:57:36.360Z,8.48
2024-03-02T19:00:06.670Z,8.45
2024-03-02T19:02:33.939Z,8.90
2024-03-02T19:05:01.721Z,7.40
2024-03-02T19:07:28.720Z,6.43
2024-03-02T19:09:56.541Z,6.97
2024-03-02T19:12:24.963Z,6.85
2024-03-02T19:14:52.489Z,6.88
2024-03-02T19:17:19.579Z,7.13
2024-03-02T19:19:46.782Z,7.00
2024-03-02T19:22:13.943Z,7.57
2024-03-02T19:24:41.239Z,6.50
2024-03-02T19:27:08.571Z,7.38
2024-03-02T19:29:35.793Z,7.55
2024-03-02T19:32:08.344Z,8.18
2024-03-02T19:34:39.451Z,7.50
2024-03-02T19:37:06.648Z,8.05
2024-03-02T19:39:37.365Z,8.18
2024-03-02T19:42:04.924Z,8.60
2024-03-02T19:44:34.048Z,8.25
2024-03-02T19:47:01.499Z,9.02
2024-03-02T19:49:28.778Z,9.23
2024-03-02T19:51:55.903Z,9.80
2024-03-02T19:54:23.203Z,11.52
2024-03-02T19:56:50.420Z,9.65
2024-03-02T19:59:17.436Z,9.55
2024-03-02T20:01:45.472Z,10.02
2024-03-02T20:04:12.604Z,8.75
2024-03-02T20:06:39.812Z,9.00
2024-03-02T20:09:07.315Z,9.95
2024-03-02T20:11:37.489Z,9.10
2024-03-02T20:14:04.670Z,8.27
2024-03-02T20:16:31.893Z,11.30
2024-03-02T20:18:59.082Z,11.90
2024-03-02T20:21:26.256Z,11.48
2024-03-02T20:23:53.542Z,11.48
2024-03-02T20:26:22.462Z,11.45
2024-03-02T20:28:53.355Z,10.80
2024-03-02T20:31:21.671Z,10.77
2024-03-02T20:33:48.895Z,10.00
2024-03-02T20:36:16.888Z,11.07
2024-03-02T20:38:44.093Z,11.00
2024-03-02T20:41:18.930Z,10.93
2024-03-02T20:43:46.796Z,10.88
2024-03-02T20:46:14.837Z,11.80
2024-03-02T20:48:42.414Z,12.32
2024-03-02T20:51:09.935Z,11.93
2024-03-02T20:53:37.414Z,11.05
2024-03-02T20:56:05.228Z,11.32
2024-03-02T20:58:32.386Z,12.85
2024-03-02T21:00:59.710Z,15.52
2024-03-02T21:03:26.872Z,15.75
2024-03-02T21:05:53.973Z,13.60
2024-03-02T21:08:21.286Z,12.73
2024-03-02T21:10:49.926Z,11.73
2024-03-02T21:13:17.940Z,12.30
2024-03-02T21:15:45.568Z,11.10
2024-03-02T21:18:12.735Z,12.73
2024-03-02T21:20:39.860Z,38.97
2024-03-02T21:23:12.344Z,31.52
2024-03-02T21:25:40.830Z,23.20
2024-03-02T21:28:08.125Z,19.35
2024-03-02T21:30:36.456Z,18.45
2024-03-02T21:33:05.480Z,18.88
2024-03-02T21:35:33.211Z,19.75
2024-03-02T21:38:04.014Z,19.60
2024-03-02T21:40:32.263Z,18.17
2024-03-02T21:43:00.295Z,18.10
2024-03-02T21:45:27.948Z,18.30
2024-03-02T21:47:55.202Z,17.15
2024-03-02T21:50:22.452Z,18.48
2024-03-02T21:52:54.741Z,15.88
2024-03-02T21:55:22.713Z,17.38
2024-03-02T21:57:49.977Z,17.75
2024-03-02T22:00:18.817Z,16.27
2024-03-02T22:02:45.910Z,16.92
2024-03-02T22:05:13.353Z,16.30
2024-03-02T22:07:40.652Z,16.58
2024-03-02T22:10:08.405Z,15.73
2024-03-02T22:12:35.514Z,15.35
2024-03-02T22:15:02.768Z,14.82
2024-03-02T22:17:30.368Z,14.38
2024-03-02T22:19:57.822Z,14.10
2024-03-02T22:22:25.014Z,14.85
2024-03-02T22:24:52.207Z,13.48
2024-03-02T22:27:19.364Z,13.98
2024-03-02T22:29:46.438Z,12.98
2024-03-02T22:32:13.779Z,12.55
2024-03-02T22:34:40.946Z,14.30
2024-03-02T22:37:08.477Z,12.38
2024-03-02T22:39:35.764Z,13.43
2024-03-02T22:42:02.830Z,12.93
2024-03-02T22:44:30.118Z,11.77
2024-03-02T22:46:57.510Z,11.57
2024-03-02T22:49:24.596Z,11.95
2024-03-02T22:51:52.022Z,11.73
2024-03-02T22:54:19.310Z,12.27
2024-03-02T22:56:47.097Z,12.05
2024-03-02T22:59:15.284Z,10.68
2024-03-02T23:01:44.917Z,10.85
2024-03-02T23:04:12.545Z,10.05
2024-03-02T23:06:39.896Z,11.30
2024-03-02T23:09:07.164Z,11.02
2024-03-02T23:11:35.187Z,10.35
2024-03-02T23:14:02.263Z,11.05
2024-03-02T23:16:30.208Z,10.95
2024-03-02T23:18:57.641Z,10.50
2024-03-02T23:21:24.873Z,10.02
2024-03-02T23:23:54.252Z,10.05
2024-03-02T23:26:26.329Z,11.07
2024-03-02T23:28:53.450Z,10.38
2024-03-02T23:31:21.290Z,11.20
2024-03-02T23:33:51.805Z,12.60
2024-03-02T23:36:19.156Z,12.65
2024-03-02T23:38:46.189Z,12.35
2024-03-02T23:41:14.106Z,12.38
2024-03-02T23:43:41.284Z,13.27
2024-03-02T23:46:09.689Z,12.90
2024-03-02T23:48:37.057Z,12.80
2024-03-02T23:51:04.623Z,14.00
2024-03-02T23:53:32.163Z,14.00
2024-03-02T23:56:12.085Z,13.20
2024-03-02T23:58:39.982Z,14.75
